createdAt,value
2019-01-23T00:00:02.600Z,44.40
2019-01-23T00:02:01.009Z,39.00
2019-01-23T00:03:06.514Z,43.10
2019-01-23T00:05:04.913Z,37.50
2019-01-23T00:06:10.427Z,38.20
2019-01-23T00:08:08.826Z,42.50
2019-01-23T00:09:14.329Z,45.80
2019-01-23T00:11:12.731Z,44.60
2019-01-23T00:12:18.234Z,46.40
2019-01-23T00:14:16.617Z,47.60
2019-01-23T00:15:22.137Z,45.20
2019-01-23T00:17:20.532Z,37.70
2019-01-23T00:18:26.046Z,43.10
2019-01-23T00:20:25.014Z,46.50
2019-01-23T00:21:29.946Z,42.90
2019-01-23T00:23:28.348Z,42.40
2019-01-23T00:24:33.853Z,43.90
2019-01-23T00:26:32.253Z,42.60
2019-01-23T00:27:37.765Z,40.60
2019-01-23T00:29:36.144Z,45.30
2019-01-23T00:30:41.664Z,47.40
2019-01-23T00:32:40.070Z,42.10
2019-01-23T00:33:45.593Z,42.30
2019-01-23T00:35:43.960Z,47.90
2019-01-23T00:36:49.473Z,45.10
2019-01-23T00:38:47.870Z,46.20
2019-01-23T00:39:53.379Z,42.90
2019-01-23T00:41:51.776Z,42.00
2019-01-23T00:42:57.282Z,46.10
2019-01-23T00:44:55.668Z,50.40
2019-01-23T00:46:01.188Z,44.70
2019-01-23T00:48:00.433Z,42.00
2019-01-23T00:49:05.940Z,41.80
2019-01-23T00:51:04.327Z,42.80
2019-01-23T00:52:09.846Z,43.00
2019-01-23T00:54:08.242Z,41.90
2019-01-23T00:55:13.754Z,42.30
2019-01-23T00:57:12.144Z,46.80
2019-01-23T00:58:17.656Z,43.20
2019-01-23T01:00:16.040Z,49.40
2019-01-23T01:01:21.567Z,44.90
2019-01-23T01:03:19.953Z,47.20
2019-01-23T01:04:25.465Z,43.10
2019-01-23T01:06:23.866Z,46.90
2019-01-23T01:07:29.367Z,44.30
2019-01-23T01:09:27.753Z,46.20
2019-01-23T01:10:33.272Z,48.30
2019-01-23T01:12:31.670Z,46.00
2019-01-23T01:13:37.177Z,45.00
2019-01-23T01:15:35.557Z,43.30
2019-01-23T01:16:41.085Z,45.80
2019-01-23T01:18:39.481Z,48.10
2019-01-23T01:19:44.980Z,43.00
2019-01-23T01:21:43.378Z,47.00
2019-01-23T01:22:48.889Z,50.40
2019-01-23T01:24:47.267Z,40.60
2019-01-23T01:25:52.794Z,40.50
2019-01-23T01:27:51.193Z,48.20
2019-01-23T01:28:56.692Z,49.50
2019-01-23T01:30:55.074Z,45.80
2019-01-23T01:32:00.597Z,53.20
2019-01-23T01:33:59.028Z,40.70
2019-01-23T01:35:04.532Z,40.30
2019-01-23T01:37:02.925Z,45.50
2019-01-23T01:38:08.434Z,45.60
2019-01-23T01:40:06.817Z,48.40
2019-01-23T01:41:12.340Z,50.80
2019-01-23T01:43:10.735Z,52.60
2019-01-23T01:44:16.244Z,52.80
2019-01-23T01:46:14.620Z,44.70
2019-01-23T01:47:20.150Z,45.60
2019-01-23T01:49:18.537Z,45.10
2019-01-23T01:50:24.050Z,44.80
2019-01-23T01:52:22.443Z,49.90
2019-01-23T01:53:29.326Z,47.40
2019-01-23T01:55:27.229Z,41.60
2019-01-23T01:56:32.701Z,44.60
2019-01-23T01:58:31.096Z,53.50
2019-01-23T01:59:36.611Z,53.60
2019-01-23T02:01:34.986Z,46.50
2019-01-23T02:02:40.507Z,46.60
2019-01-23T02:04:38.906Z,52.10
2019-01-23T02:05:44.411Z,48.40
2019-01-23T02:07:43.691Z,47.30
2019-01-23T02:08:49.167Z,43.30
2019-01-23T02:10:47.545Z,45.80
2019-01-23T02:11:53.068Z,43.90
2019-01-23T02:13:51.468Z,51.70
2019-01-23T02:14:56.978Z,47.50
2019-01-23T02:16:55.356Z,48.40
2019-01-23T02:18:00.874Z,51.70
2019-01-23T02:19:59.269Z,51.40
2019-01-23T02:21:04.776Z,49.30
2019-01-23T02:23:03.174Z,46.60
2019-01-23T02:24:08.685Z,44.50
2019-01-23T02:26:07.066Z,53.20
2019-01-23T02:27:12.583Z,53.30
2019-01-23T02:29:10.982Z,44.90
2019-01-23T02:30:16.529Z,49.10
2019-01-23T02:32:14.888Z,43.50
2019-01-23T02:33:20.399Z,47.40
2019-01-23T02:35:18.774Z,48.60
2019-01-23T02:36:24.300Z,44.70
2019-01-23T02:38:22.695Z,45.00
2019-01-23T02:39:28.200Z,48.70
2019-01-23T02:41:26.579Z,41.90
2019-01-23T02:42:32.101Z,46.40
2019-01-23T02:44:30.497Z,47.70
2019-01-23T02:45:36.012Z,51.70
2019-01-23T02:47:34.425Z,46.40
2019-01-23T02:48:39.911Z,47.20
2019-01-23T02:50:38.357Z,43.50
2019-01-23T02:51:43.814Z,49.00
2019-01-23T02:53:42.232Z,46.80
2019-01-23T02:54:47.723Z,48.70
2019-01-23T02:56:46.102Z,46.70
2019-01-23T02:57:51.624Z,45.30
2019-01-23T02:59:50.872Z,49.60
2019-01-23T03:00:56.379Z,48.90
2019-01-23T03:02:54.761Z,47.90
2019-01-23T03:04:00.286Z,46.80
2019-01-23T03:05:58.774Z,45.70
2019-01-23T03:07:04.194Z,48.30
2019-01-23T03:09:02.569Z,49.80
2019-01-23T03:10:08.095Z,47.30
2019-01-23T03:12:06.493Z,46.70
2019-01-23T03:13:11.994Z,49.50
2019-01-23T03:15:10.393Z,51.40
2019-01-23T03:16:15.906Z,48.00
2019-01-23T03:18:14.291Z,55.00
2019-01-23T03:19:19.811Z,47.50
2019-01-23T03:21:18.199Z,49.30
2019-01-23T03:22:23.706Z,47.80
2019-01-23T03:24:22.096Z,45.00
2019-01-23T03:25:27.613Z,49.80
2019-01-23T03:27:26.006Z,52.90
2019-01-23T03:28:31.508Z,48.30
2019-01-23T03:30:29.903Z,40.50
2019-01-23T03:31:35.410Z,40.10
2019-01-23T03:33:33.791Z,46.90
2019-01-23T03:34:39.315Z,46.60
2019-01-23T03:36:37.712Z,47.60
2019-01-23T03:37:43.219Z,49.40
2019-01-23T03:39:41.615Z,49.30
2019-01-23T03:40:47.125Z,53.90
2019-01-23T03:42:45.511Z,47.90
2019-01-23T03:43:51.026Z,49.40
2019-01-23T03:45:49.424Z,45.50
2019-01-23T03:46:54.928Z,47.40
2019-01-23T03:48:53.310Z,47.90
2019-01-23T03:49:58.835Z,53.80
2019-01-23T03:51:58.803Z,42.70
2019-01-23T03:53:03.586Z,48.60
2019-01-23T03:55:01.985Z,46.20
2019-01-23T03:56:07.495Z,41.30
2019-01-23T03:58:05.884Z,47.60
2019-01-23T03:59:11.396Z,43.10
2019-01-23T04:01:09.805Z,41.40
2019-01-23T04:02:15.316Z,41.90
2019-01-23T04:04:13.699Z,45.70
2019-01-23T04:05:19.229Z,41.60
2019-01-23T04:07:17.616Z,47.90
2019-01-23T04:08:23.114Z,49.30
2019-01-23T04:10:21.525Z,50.20
2019-01-23T04:11:27.029Z,45.60
2019-01-23T04:13:25.405Z,50.30
2019-01-23T04:14:30.922Z,53.80
2019-01-23T04:16:30.337Z,53.60
2019-01-23T04:17:35.820Z,53.90
2019-01-23T04:19:34.205Z,44.90
2019-01-23T04:20:39.724Z,54.20
2019-01-23T04:22:38.121Z,52.50
2019-01-23T04:23:43.657Z,46.20
2019-01-23T04:25:42.011Z,42.60
2019-01-23T04:26:47.534Z,50.30
2019-01-23T04:28:45.920Z,46.50
2019-01-23T04:29:51.432Z,47.90
2019-01-23T04:31:49.813Z,51.30
2019-01-23T04:32:55.336Z,49.70
2019-01-23T04:34:53.728Z,56.10
2019-01-23T04:35:59.238Z,51.30
2019-01-23T04:37:57.629Z,48.90
2019-01-23T04:39:03.141Z,49.60
2019-01-23T04:41:01.520Z,44.20
2019-01-23T04:42:07.047Z,49.30
2019-01-23T04:44:05.450Z,49.50
2019-01-23T04:45:10.965Z,48.10
2019-01-23T04:47:09.339Z,44.90
2019-01-23T04:48:14.868Z,50.80
2019-01-23T04:50:13.308Z,46.00
2019-01-23T04:51:18.812Z,42.20
2019-01-23T04:53:17.174Z,53.90
2019-01-23T04:54:22.703Z,49.50
2019-01-23T04:56:21.089Z,44.80
2019-01-23T04:57:26.594Z,48.00
2019-01-23T04:59:24.984Z,47.20
2019-01-23T05:00:30.521Z,51.60
2019-01-23T05:02:28.902Z,50.20
2019-01-23T05:03:34.425Z,50.30
2019-01-23T05:05:32.783Z,54.30
2019-01-23T05:06:38.308Z,55.20
2019-01-23T05:08:36.734Z,46.10
2019-01-23T05:09:42.233Z,50.90
2019-01-23T05:11:40.707Z,50.90
2019-01-23T05:12:46.147Z,46.90
2019-01-23T05:14:44.536Z,51.00
2019-01-23T05:15:50.050Z,48.30
2019-01-23T05:17:48.430Z,46.30
2019-01-23T05:18:53.954Z,46.60
2019-01-23T05:20:52.350Z,45.60
2019-01-23T05:21:57.849Z,50.30
2019-01-23T05:23:56.231Z,46.30
2019-01-23T05:25:01.754Z,49.20
2019-01-23T05:27:00.146Z,43.00
2019-01-23T05:28:05.663Z,46.00
2019-01-23T05:30:04.044Z,52.00
2019-01-23T05:31:09.571Z,48.50
2019-01-23T05:33:07.962Z,50.30
2019-01-23T05:34:13.470Z,54.60
2019-01-23T05:36:11.864Z,47.10
2019-01-23T05:37:17.392Z,46.70
2019-01-23T05:39:15.779Z,48.70
2019-01-23T05:40:21.283Z,51.80
2019-01-23T05:42:19.700Z,45.90
2019-01-23T05:43:25.237Z,40.90
2019-01-23T05:45:23.582Z,43.30
2019-01-23T05:46:29.098Z,42.00
2019-01-23T05:48:27.720Z,45.30
2019-01-23T05:49:33.212Z,48.30
2019-01-23T05:51:31.589Z,46.90
2019-01-23T05:52:37.110Z,46.50
2019-01-23T05:54:35.500Z,48.90
2019-01-23T05:55:41.007Z,48.40
2019-01-23T05:57:39.396Z,44.70
2019-01-23T05:58:44.924Z,46.60
2019-01-23T06:00:43.315Z,45.30
2019-01-23T06:01:49.384Z,42.00
2019-01-23T06:03:47.206Z,48.40
2019-01-23T06:04:52.722Z,50.70
2019-01-23T06:06:51.139Z,44.00
2019-01-23T06:07:56.631Z,49.90
2019-01-23T06:09:55.010Z,41.70
2019-01-23T06:11:00.529Z,43.70
2019-01-23T06:12:58.931Z,48.60
2019-01-23T06:14:04.435Z,45.80
2019-01-23T06:16:02.816Z,44.60
2019-01-23T06:17:08.333Z,47.80
2019-01-23T06:19:07.592Z,50.00
2019-01-23T06:20:13.086Z,51.50
2019-01-23T06:22:11.468Z,50.90
2019-01-23T06:23:16.985Z,43.90
2019-01-23T06:25:15.379Z,43.80
2019-01-23T06:26:20.889Z,47.60
2019-01-23T06:28:19.262Z,45.10
2019-01-23T06:29:24.792Z,44.70
2019-01-23T06:31:23.196Z,44.30
2019-01-23T06:32:28.690Z,48.20
2019-01-23T06:34:27.067Z,47.40
2019-01-23T06:35:32.590Z,46.40
2019-01-23T06:37:30.984Z,45.10
2019-01-23T06:38:36.488Z,46.70
2019-01-23T06:40:34.870Z,51.30
2019-01-23T06:41:40.390Z,43.60
2019-01-23T06:43:38.806Z,47.00
2019-01-23T06:44:44.294Z,49.00
2019-01-23T06:46:42.686Z,42.30
2019-01-23T06:47:48.211Z,43.90
2019-01-23T06:49:46.609Z,44.90
2019-01-23T06:50:52.110Z,43.50
2019-01-23T06:52:50.497Z,43.50
2019-01-23T06:53:56.026Z,46.40
2019-01-23T06:55:54.432Z,44.10
2019-01-23T06:56:59.916Z,50.90
2019-01-23T06:58:58.292Z,46.00
2019-01-23T07:00:03.815Z,41.50
2019-01-23T07:02:02.214Z,49.30
2019-01-23T07:03:07.724Z,53.50
2019-01-23T07:05:06.105Z,44.10
2019-01-23T07:06:11.624Z,49.00
2019-01-23T07:08:10.030Z,46.60
2019-01-23T07:09:15.524Z,48.70
2019-01-23T07:11:14.751Z,50.50
2019-01-23T07:12:20.269Z,46.40
2019-01-23T07:14:18.676Z,40.90
2019-01-23T07:15:24.174Z,43.10
2019-01-23T07:17:22.550Z,40.50
2019-01-23T07:18:28.070Z,45.00
2019-01-23T07:20:26.467Z,44.30
2019-01-23T07:21:31.969Z,46.10
2019-01-23T07:23:30.347Z,41.30
2019-01-23T07:24:35.868Z,45.70
2019-01-23T07:26:34.280Z,50.00
2019-01-23T07:27:39.778Z,46.80
2019-01-23T07:29:38.161Z,44.30
2019-01-23T07:30:43.678Z,51.60
2019-01-23T07:32:42.077Z,48.10
2019-01-23T07:33:47.579Z,53.10
2019-01-23T07:35:45.970Z,48.50
2019-01-23T07:36:51.495Z,51.30
2019-01-23T07:38:49.892Z,51.00
2019-01-23T07:39:55.394Z,47.70
2019-01-23T07:41:53.783Z,47.80
2019-01-23T07:42:59.331Z,53.30
2019-01-23T07:44:57.700Z,44.70
2019-01-23T07:46:03.188Z,50.40
2019-01-23T07:48:01.584Z,47.70
2019-01-23T07:49:07.097Z,47.80
2019-01-23T07:51:05.473Z,49.20
2019-01-23T07:52:10.995Z,48.60
2019-01-23T07:54:09.392Z,47.40
2019-01-23T07:55:14.888Z,48.50
2019-01-23T07:57:13.267Z,47.50
2019-01-23T07:58:18.791Z,49.90
2019-01-23T08:00:17.173Z,47.80
2019-01-23T08:01:22.687Z,49.70
2019-01-23T08:03:21.064Z,47.60
2019-01-23T08:04:26.582Z,55.10
2019-01-23T08:06:24.981Z,53.90
2019-01-23T08:07:30.481Z,48.10
2019-01-23T08:09:28.871Z,48.50
2019-01-23T08:10:34.379Z,51.50
2019-01-23T08:12:32.758Z,51.60
2019-01-23T08:13:38.284Z,55.80
2019-01-23T08:15:36.713Z,48.60
2019-01-23T08:16:42.185Z,50.60
2019-01-23T08:18:40.557Z,52.70
2019-01-23T08:19:46.080Z,56.60
2019-01-23T08:21:44.478Z,52.40
2019-01-23T08:22:49.978Z,54.00
2019-01-23T08:24:48.362Z,49.60
2019-01-23T08:25:53.885Z,56.00
2019-01-23T08:27:52.271Z,58.90
2019-01-23T08:28:57.780Z,56.60
2019-01-23T08:30:56.166Z,59.20
2019-01-23T08:32:01.688Z,53.60
2019-01-23T08:34:00.086Z,54.60
2019-01-23T08:35:05.596Z,55.40
2019-01-23T08:37:03.994Z,59.60
2019-01-23T08:38:09.502Z,63.60
2019-01-23T08:40:07.885Z,59.00
2019-01-23T08:41:13.412Z,57.10
2019-01-23T08:43:11.793Z,62.50
2019-01-23T08:44:17.304Z,60.30
2019-01-23T08:46:15.678Z,58.00
2019-01-23T08:47:21.198Z,53.80
2019-01-23T08:49:19.596Z,53.40
2019-01-23T08:50:25.099Z,62.30
2019-01-23T08:52:23.509Z,59.30
2019-01-23T08:53:29.014Z,65.60
2019-01-23T08:55:27.620Z,59.60
2019-01-23T08:56:33.144Z,62.50
2019-01-23T08:58:31.536Z,60.70
2019-01-23T08:59:37.038Z,58.30
2019-01-23T09:01:35.417Z,54.10
2019-01-23T09:02:40.941Z,54.50
2019-01-23T09:04:39.333Z,57.00
2019-01-23T09:05:44.844Z,62.10
2019-01-23T09:07:43.232Z,56.40
2019-01-23T09:08:49.303Z,65.90
2019-01-23T09:10:47.130Z,60.00
2019-01-23T09:11:52.637Z,59.40
2019-01-23T09:13:51.032Z,60.90
2019-01-23T09:14:56.543Z,51.90
2019-01-23T09:16:54.936Z,56.40
2019-01-23T09:18:00.444Z,58.40
2019-01-23T09:19:58.828Z,62.00
2019-01-23T09:21:04.346Z,56.00
2019-01-23T09:23:02.731Z,58.90
2019-01-23T09:24:08.248Z,60.10
2019-01-23T09:26:06.630Z,58.10
2019-01-23T09:27:12.142Z,56.70
2019-01-23T09:29:10.538Z,59.20
2019-01-23T09:30:16.045Z,63.20
2019-01-23T09:32:14.451Z,57.30
2019-01-23T09:33:19.956Z,57.00
2019-01-23T09:35:18.333Z,59.30
2019-01-23T09:36:23.860Z,54.20
2019-01-23T09:38:22.253Z,61.10
2019-01-23T09:39:27.762Z,58.80
2019-01-23T09:41:26.140Z,56.00
2019-01-23T09:42:31.667Z,54.20
2019-01-23T09:44:30.058Z,51.10
2019-01-23T09:45:35.565Z,57.00
2019-01-23T09:47:33.941Z,54.00
2019-01-23T09:48:39.465Z,56.80
2019-01-23T09:50:37.864Z,58.00
2019-01-23T09:51:43.370Z,55.20
2019-01-23T09:53:41.781Z,59.50
2019-01-23T09:54:47.270Z,61.70
2019-01-23T09:56:45.657Z,54.40
2019-01-23T09:57:51.173Z,46.80
2019-01-23T09:59:49.572Z,59.10
2019-01-23T10:00:59.723Z,51.90
2019-01-23T10:02:53.458Z,56.40
2019-01-23T10:03:58.981Z,55.10
2019-01-23T10:05:57.387Z,51.30
2019-01-23T10:07:02.883Z,49.90
2019-01-23T10:09:01.268Z,55.10
2019-01-23T10:10:06.793Z,48.60
2019-01-23T10:12:05.183Z,60.20
2019-01-23T10:13:10.692Z,52.00
2019-01-23T10:15:09.076Z,50.60
2019-01-23T10:16:14.592Z,57.10
2019-01-23T10:18:12.991Z,56.10
2019-01-23T10:19:18.501Z,59.60
2019-01-23T10:21:16.885Z,56.00
2019-01-23T10:22:22.410Z,47.70
2019-01-23T10:24:20.814Z,58.20
2019-01-23T10:25:26.312Z,51.40
2019-01-23T10:27:24.738Z,63.00
2019-01-23T10:28:30.217Z,66.30
2019-01-23T10:30:28.605Z,56.50
2019-01-23T10:31:34.118Z,60.90
2019-01-23T10:33:32.527Z,62.40
2019-01-23T10:34:38.024Z,62.20
2019-01-23T10:36:36.403Z,53.20
2019-01-23T10:37:41.934Z,53.50
2019-01-23T10:39:40.324Z,65.70
2019-01-23T10:40:45.830Z,56.50
2019-01-23T10:42:44.209Z,57.40
2019-01-23T10:43:49.737Z,53.10
2019-01-23T10:45:48.133Z,50.10
2019-01-23T10:46:53.638Z,51.50
2019-01-23T10:48:52.047Z,51.00
2019-01-23T10:49:57.550Z,49.70
2019-01-23T10:51:55.933Z,54.40
2019-01-23T10:53:01.461Z,54.90
2019-01-23T10:54:59.851Z,55.40
2019-01-23T10:56:05.357Z,53.00
2019-01-23T10:58:03.738Z,46.70
2019-01-23T10:59:09.265Z,54.60
2019-01-23T11:01:13.315Z,61.40
2019-01-23T11:02:13.170Z,55.40
2019-01-23T11:04:11.568Z,49.60
2019-01-23T11:05:17.079Z,53.80
2019-01-23T11:07:15.457Z,54.20
2019-01-23T11:08:20.980Z,53.20
2019-01-23T11:10:19.377Z,49.10
2019-01-23T11:11:24.886Z,52.00
2019-01-23T11:13:23.263Z,53.70
2019-01-23T11:14:28.789Z,50.50
2019-01-23T11:16:27.175Z,46.30
2019-01-23T11:17:32.695Z,49.10
2019-01-23T11:19:31.086Z,47.90
2019-01-23T11:20:36.597Z,51.80
2019-01-23T11:22:34.975Z,53.90
2019-01-23T11:23:40.505Z,51.60
2019-01-23T11:25:38.895Z,49.90
2019-01-23T11:26:44.404Z,50.50
2019-01-23T11:28:42.784Z,55.60
2019-01-23T11:29:48.311Z,59.70
2019-01-23T11:31:46.702Z,58.20
2019-01-23T11:32:52.209Z,51.50
2019-01-23T11:34:50.609Z,56.00
2019-01-23T11:35:56.120Z,49.80
2019-01-23T11:37:54.495Z,47.40
2019-01-23T11:39:00.024Z,50.30
2019-01-23T11:40:58.412Z,53.20
2019-01-23T11:42:03.929Z,52.80
2019-01-23T11:44:02.322Z,48.60
2019-01-23T11:45:07.837Z,53.60
2019-01-23T11:47:06.221Z,52.20
2019-01-23T11:48:11.746Z,52.20
2019-01-23T11:50:10.148Z,60.40
2019-01-23T11:51:15.659Z,53.30
2019-01-23T11:53:14.041Z,52.10
2019-01-23T11:54:19.567Z,51.40
2019-01-23T11:56:17.958Z,56.60
2019-01-23T11:57:23.471Z,61.90
2019-01-23T11:59:21.864Z,57.10
2019-01-23T12:00:27.371Z,66.90
2019-01-23T12:02:30.724Z,54.60
2019-01-23T12:03:31.275Z,57.10
2019-01-23T12:05:29.726Z,62.80
2019-01-23T12:06:35.190Z,63.30
2019-01-23T12:08:33.567Z,57.40
2019-01-23T12:09:39.085Z,57.00
2019-01-23T12:11:37.478Z,57.70
2019-01-23T12:12:42.988Z,55.00
2019-01-23T12:14:41.391Z,62.20
2019-01-23T12:15:46.890Z,56.40
2019-01-23T12:17:45.275Z,63.60
2019-01-23T12:18:50.804Z,59.80
2019-01-23T12:20:49.201Z,60.30
2019-01-23T12:21:54.708Z,63.10
2019-01-23T12:23:58.249Z,58.50
2019-01-23T12:24:58.613Z,61.30
2019-01-23T12:26:57.862Z,59.60
2019-01-23T12:28:03.370Z,58.10
2019-01-23T12:30:01.767Z,68.90
2019-01-23T12:31:07.276Z,59.30
2019-01-23T12:33:05.671Z,54.90
2019-01-23T12:34:11.179Z,63.40
2019-01-23T12:36:09.585Z,59.50
2019-01-23T12:37:15.086Z,57.60
2019-01-23T12:39:13.487Z,62.30
2019-01-23T12:40:18.992Z,57.70
2019-01-23T12:42:18.224Z,61.90
2019-01-23T12:43:23.753Z,60.30
2019-01-23T12:45:22.162Z,49.70
2019-01-23T12:46:27.652Z,52.50
2019-01-23T12:48:26.039Z,61.20
2019-01-23T12:49:31.559Z,56.60
2019-01-23T12:51:29.971Z,59.00
2019-01-23T12:52:35.469Z,57.20
2019-01-23T12:54:33.850Z,58.40
2019-01-23T12:55:39.368Z,58.40
2019-01-23T12:57:37.765Z,63.80
2019-01-23T12:58:43.274Z,52.50
2019-01-23T13:00:41.659Z,60.30
2019-01-23T13:01:47.217Z,55.20
2019-01-23T13:03:45.579Z,59.80
2019-01-23T13:04:51.084Z,64.40
2019-01-23T13:06:49.497Z,58.50
2019-01-23T13:07:55.002Z,53.30
2019-01-23T13:09:53.371Z,55.90
2019-01-23T13:10:58.891Z,57.60
2019-01-23T13:12:57.301Z,59.90
2019-01-23T13:14:02.801Z,62.50
2019-01-23T13:16:01.184Z,64.70
2019-01-23T13:17:06.706Z,59.70
2019-01-23T13:19:05.099Z,65.60
2019-01-23T13:20:10.618Z,56.30
2019-01-23T13:22:08.996Z,54.70
2019-01-23T13:23:19.671Z,55.90
2019-01-23T13:25:12.916Z,56.10
2019-01-23T13:26:18.420Z,57.30
2019-01-23T13:28:16.804Z,57.90
2019-01-23T13:29:23.168Z,60.10
2019-01-23T13:31:20.740Z,59.90
2019-01-23T13:32:26.250Z,68.00
2019-01-23T13:34:24.641Z,64.00
2019-01-23T13:35:30.154Z,55.50
2019-01-23T13:37:28.654Z,72.20
2019-01-23T13:38:34.061Z,65.40
2019-01-23T13:40:32.455Z,58.10
2019-01-23T13:41:37.960Z,57.00
2019-01-23T13:43:36.347Z,60.70
2019-01-23T13:44:41.864Z,53.70
2019-01-23T13:46:40.265Z,60.80
2019-01-23T13:47:45.776Z,58.10
2019-01-23T13:49:44.158Z,67.20
2019-01-23T13:50:49.673Z,63.30
2019-01-23T13:52:48.073Z,58.00
2019-01-23T13:53:53.578Z,68.40
2019-01-23T13:55:51.962Z,68.20
2019-01-23T13:56:57.483Z,61.30
2019-01-23T13:58:55.892Z,61.80
2019-01-23T14:00:01.401Z,61.50
2019-01-23T14:01:59.811Z,58.80
2019-01-23T14:03:05.307Z,64.50
2019-01-23T14:05:03.691Z,64.70
2019-01-23T14:06:09.212Z,58.80
2019-01-23T14:08:07.609Z,65.40
2019-01-23T14:09:13.120Z,67.80
2019-01-23T14:11:11.496Z,64.00
2019-01-23T14:12:17.026Z,76.20
2019-01-23T14:14:15.422Z,71.60
2019-01-23T14:15:20.926Z,70.90
2019-01-23T14:17:19.323Z,67.00
2019-01-23T14:18:24.829Z,67.00
2019-01-23T14:20:23.208Z,65.80
2019-01-23T14:21:28.732Z,58.90
2019-01-23T14:23:27.144Z,64.50
2019-01-23T14:24:32.642Z,67.00
2019-01-23T14:26:31.020Z,62.40
2019-01-23T14:27:36.550Z,56.00
2019-01-23T14:29:34.942Z,64.60
2019-01-23T14:30:40.446Z,64.80
2019-01-23T14:32:38.841Z,68.40
2019-01-23T14:33:44.349Z,60.70
2019-01-23T14:35:42.730Z,66.00
2019-01-23T14:36:48.257Z,63.50
2019-01-23T14:38:46.653Z,71.90
2019-01-23T14:39:52.161Z,62.20
2019-01-23T14:41:51.409Z,59.50
2019-01-23T14:42:56.913Z,65.80
2019-01-23T14:44:55.301Z,62.30
2019-01-23T14:46:00.825Z,70.00
2019-01-23T14:47:59.211Z,61.60
2019-01-23T14:49:04.724Z,64.60
2019-01-23T14:51:03.103Z,62.70
2019-01-23T14:52:08.626Z,61.30
2019-01-23T14:54:07.040Z,59.50
2019-01-23T14:55:12.534Z,61.10
2019-01-23T14:57:11.778Z,61.30
2019-01-23T14:58:17.286Z,60.70
2019-01-23T15:00:15.672Z,70.90
2019-01-23T15:01:21.188Z,62.10
2019-01-23T15:03:19.585Z,64.30
2019-01-23T15:04:25.092Z,73.80
2019-01-23T15:06:24.323Z,64.90
2019-01-23T15:07:29.841Z,60.70
2019-01-23T15:09:28.246Z,63.10
2019-01-23T15:10:33.756Z,61.00
2019-01-23T15:12:32.144Z,73.90
2019-01-23T15:13:37.651Z,64.10
2019-01-23T15:15:36.039Z,62.10
2019-01-23T15:16:41.563Z,70.50
2019-01-23T15:18:39.962Z,60.80
2019-01-23T15:19:45.459Z,61.70
2019-01-23T15:21:44.690Z,69.90
2019-01-23T15:22:50.216Z,65.80
2019-01-23T15:24:48.806Z,64.70
2019-01-23T15:25:54.114Z,68.20
2019-01-23T15:27:52.498Z,67.50
2019-01-23T15:28:58.025Z,64.80
2019-01-23T15:30:56.415Z,64.70
2019-01-23T15:32:01.923Z,79.90
2019-01-23T15:34:00.307Z,76.00
2019-01-23T15:35:05.832Z,68.10
2019-01-23T15:37:04.225Z,64.20
2019-01-23T15:38:09.737Z,62.20
2019-01-23T15:40:08.127Z,68.20
2019-01-23T15:41:13.634Z,70.00
2019-01-23T15:43:12.029Z,62.50
2019-01-23T15:44:17.558Z,67.00
2019-01-23T15:46:15.950Z,63.00
2019-01-23T15:47:21.456Z,62.80
2019-01-23T15:49:19.853Z,60.00
2019-01-23T15:50:25.360Z,78.70
2019-01-23T15:52:23.766Z,71.50
2019-01-23T15:53:29.284Z,73.50
2019-01-23T15:55:27.699Z,71.60
2019-01-23T15:56:33.188Z,66.50
2019-01-23T15:58:31.574Z,67.50
2019-01-23T15:59:37.107Z,74.70
2019-01-23T16:01:35.496Z,62.70
2019-01-23T16:02:41.022Z,67.50
2019-01-23T16:04:39.410Z,70.70
2019-01-23T16:05:44.916Z,64.10
2019-01-23T16:07:43.302Z,71.10
2019-01-23T16:08:48.821Z,71.60
2019-01-23T16:10:47.227Z,71.20
2019-01-23T16:11:52.733Z,70.00
2019-01-23T16:13:51.110Z,63.30
2019-01-23T16:14:57.189Z,67.10
2019-01-23T16:16:55.027Z,70.80
2019-01-23T16:18:00.538Z,72.50
2019-01-23T16:19:58.937Z,72.20
2019-01-23T16:21:04.445Z,56.60
2019-01-23T16:23:03.679Z,71.60
2019-01-23T16:24:09.196Z,62.40
2019-01-23T16:26:07.590Z,84.50
2019-01-23T16:27:13.100Z,80.00
2019-01-23T16:29:11.486Z,73.60
2019-01-23T16:30:17.000Z,74.10
2019-01-23T16:32:15.403Z,74.00
2019-01-23T16:33:20.911Z,63.20
2019-01-23T16:35:19.297Z,67.30
2019-01-23T16:36:24.814Z,62.10
2019-01-23T16:38:23.205Z,65.90
2019-01-23T16:39:28.719Z,61.90
2019-01-23T16:41:27.096Z,76.00
2019-01-23T16:42:32.620Z,74.60
2019-01-23T16:44:31.865Z,75.10
2019-01-23T16:45:37.368Z,79.00
2019-01-23T16:47:35.768Z,64.60
2019-01-23T16:48:41.275Z,68.40
2019-01-23T16:50:39.661Z,90.90
2019-01-23T16:51:51.310Z,73.40
2019-01-23T16:53:43.822Z,73.60
2019-01-23T16:54:49.321Z,72.20
2019-01-23T16:56:47.720Z,82.40
2019-01-23T16:57:53.228Z,82.60
2019-01-23T16:59:51.606Z,69.70
2019-01-23T17:00:57.129Z,72.70
2019-01-23T17:02:55.532Z,68.60
2019-01-23T17:04:01.033Z,85.90
2019-01-23T17:05:59.427Z,81.20
2019-01-23T17:07:05.494Z,69.30
2019-01-23T17:09:03.357Z,71.70
2019-01-23T17:10:08.856Z,82.20
2019-01-23T17:12:09.316Z,101.10
2019-01-23T17:13:12.766Z,89.90
2019-01-23T17:15:11.174Z,71.40
2019-01-23T17:16:16.673Z,77.00
2019-01-23T17:18:15.906Z,88.30
2019-01-23T17:19:21.416Z,85.40
2019-01-23T17:21:19.847Z,97.10
2019-01-23T17:22:25.320Z,81.90
2019-01-23T17:24:23.703Z,73.00
2019-01-23T17:25:29.223Z,82.90
2019-01-23T17:27:28.472Z,74.60
2019-01-23T17:28:34.258Z,76.70
2019-01-23T17:30:32.351Z,92.30
2019-01-23T17:31:37.872Z,83.70
2019-01-23T17:33:36.294Z,68.40
2019-01-23T17:34:41.785Z,71.60
2019-01-23T17:36:41.010Z,78.10
2019-01-23T17:37:46.534Z,79.70
2019-01-23T17:39:44.938Z,81.20
2019-01-23T17:40:50.431Z,88.30
2019-01-23T17:42:48.809Z,77.30
2019-01-23T17:43:54.334Z,78.90
2019-01-23T17:45:53.598Z,82.50
2019-01-23T17:46:59.087Z,90.90
2019-01-23T17:48:57.489Z,78.90
2019-01-23T17:50:02.990Z,85.70
2019-01-23T17:52:01.396Z,90.50
2019-01-23T17:53:06.893Z,80.90
2019-01-23T17:55:05.310Z,72.80
2019-01-23T17:56:10.807Z,83.90
2019-01-23T17:58:09.234Z,78.70
2019-01-23T17:59:14.709Z,78.90
2019-01-23T18:01:13.945Z,85.10
2019-01-23T18:02:19.472Z,81.00
2019-01-23T18:04:17.873Z,75.90
2019-01-23T18:05:23.374Z,77.40
2019-01-23T18:07:21.747Z,78.90
2019-01-23T18:08:27.273Z,76.80
2019-01-23T18:10:25.684Z,102.80
2019-01-23T18:11:31.175Z,77.10
2019-01-23T18:13:30.410Z,75.70
2019-01-23T18:14:35.925Z,79.40
2019-01-23T18:16:34.332Z,73.10
2019-01-23T18:17:39.830Z,76.00
2019-01-23T18:19:38.212Z,85.80
2019-01-23T18:20:43.733Z,83.50
2019-01-23T18:22:42.140Z,88.00
2019-01-23T18:23:47.635Z,81.90
2019-01-23T18:25:46.014Z,77.80
2019-01-23T18:26:51.536Z,83.00
2019-01-23T18:28:49.941Z,83.90
2019-01-23T18:29:55.437Z,85.00
2019-01-23T18:31:53.820Z,85.40
2019-01-23T18:33:00.231Z,80.80
2019-01-23T18:34:57.764Z,81.70
2019-01-23T18:36:03.268Z,79.60
2019-01-23T18:38:01.647Z,78.50
2019-01-23T18:39:07.167Z,80.90
2019-01-23T18:41:05.572Z,99.60
2019-01-23T18:42:11.067Z,86.10
2019-01-23T18:44:09.451Z,81.70
2019-01-23T18:45:14.970Z,88.30
2019-01-23T18:47:13.393Z,83.10
2019-01-23T18:48:18.870Z,89.90
2019-01-23T18:50:17.253Z,95.40
2019-01-23T18:51:22.769Z,85.30
2019-01-23T18:53:21.177Z,86.30
2019-01-23T18:54:26.678Z,88.60
2019-01-23T18:56:25.054Z,84.20
2019-01-23T18:57:30.578Z,91.60
2019-01-23T18:59:28.986Z,87.50
2019-01-23T19:00:34.475Z,92.20
2019-01-23T19:02:32.862Z,87.90
2019-01-23T19:03:38.381Z,86.60
2019-01-23T19:05:36.788Z,91.60
2019-01-23T19:06:42.282Z,87.00
2019-01-23T19:08:40.658Z,82.20
2019-01-23T19:09:46.186Z,78.40
2019-01-23T19:11:44.602Z,81.10
2019-01-23T19:12:50.085Z,92.30
2019-01-23T19:14:48.469Z,83.00
2019-01-23T19:15:53.982Z,82.90
2019-01-23T19:17:52.393Z,89.30
2019-01-23T19:18:57.886Z,90.80
2019-01-23T19:20:56.485Z,87.70
2019-01-23T19:22:01.789Z,94.70
2019-01-23T19:24:00.186Z,98.60
2019-01-23T19:25:05.693Z,90.20
2019-01-23T19:27:04.079Z,93.90
2019-01-23T19:28:09.609Z,81.80
2019-01-23T19:30:09.313Z,85.60
2019-01-23T19:31:13.508Z,96.90
2019-01-23T19:33:13.646Z,88.10
2019-01-23T19:34:17.412Z,90.70
2019-01-23T19:36:15.827Z,90.60
2019-01-23T19:37:21.319Z,84.60
2019-01-23T19:39:19.702Z,102.60
2019-01-23T19:40:25.221Z,85.80
2019-01-23T19:42:24.479Z,87.60
2019-01-23T19:43:30.696Z,96.90